Date,TemperatureHighF,TemperatureAvgF,TemperatureLowF,DewpointHighF,DewpointAvgF,DewpointLowF,HumidityHigh,HumidityAvg,HumidityLow,PressureMaxIn,PressureMinIn,WindSpeedMaxMPH,WindSpeedAvgMPH,GustSpeedMaxMPH,PrecipitationSumIn
2013-5-1,63,56,51,53,50,48,93,82,65,30.41,30.26,6,3,0,0.00
2013-5-2,61,53,48,54,50,47,97,91,77,30.42,30.35,7,3,0,0.00
2013-5-3,59,52,47,49,44,38,94,76,45,30.37,30.24,10,5,0,0.00
2013-5-4,57,47,41,45,40,35,94,78,43,30.24,30.15,9,6,0,0.00
2013-5-5,48,45,42,47,42,33,98,90,64,30.20,30.05,8,4,0,0.00
2013-5-6,57,51,48,56,50,47,98,96,88,30.06,29.94,11,5,0,0.00
2013-5-7,58,51,46,52,49,46,100,90,71,30.03,29.97,7,2,0,0.00
2013-5-8,58,51,46,54,50,45,99,94,87,30.14,30.01,10,3,0,0.00
2013-5-9,71,60,51,55,52,49,95,77,52,30.19,30.11,12,5,0,0.00
2013-5-10,73,58,48,60,52,-100,98,86,51,30.17,30.04,10,2,0,0.00
2013-5-11,69,60,56,57,55,51,98,83,58,30.05,29.89,12,5,0,0.00
2013-5-12,55,49,43,50,36,-100,93,65,40,30.16,29.93,16,9,0,0.00
2013-5-13,55,46,35,32,28,25,82,53,32,30.32,30.16,14,6,0,0.00
2013-5-14,70,52,32,48,36,26,89,57,26,30.36,30.15,12,4,0,0.00
2013-5-15,79,69,56,58,54,47,73,61,47,30.16,30.00,16,10,0,0.00
2013-5-16,73,62,61,55,32,-100,77,61,40,30.10,29.99,17,7,0,0.00
2013-5-17,74,61,53,62,52,-100,97,86,52,30.21,30.08,6,1,0,0.00
2013-5-18,66,60,56,61,59,55,99,95,84,30.22,30.14,6,2,0,0.00
2013-5-19,70,62,58,65,60,57,99,93,78,30.19,30.09,7,2,0,0.00
2013-5-20,70,62,58,65,61,58,99,94,78,30.19,30.11,10,2,0,0.00
2013-5-21,81,67,55,66,60,54,100,80,49,30.15,29.98,12,3,0,0.00
2013-5-22,79,64,56,65,58,54,97,83,54,30.06,29.96,10,2,0,0.00
2013-5-23,74,62,56,61,56,52,99,84,48,30.02,29.90,12,4,0,0.00
2013-5-24,57,52,45,53,43,34,91,72,44,30.31,29.96,15,10,0,0.00
2013-5-25,65,52,42,38,35,29,73,54,26,30.45,30.31,14,8,0,0.00
2013-5-26,67,56,46,49,43,37,85,64,47,30.38,30.29,10,4,0,0.00
2013-5-27,73,59,44,60,51,42,100,78,59,30.39,30.23,7,2,0,0.00
2013-5-28,77,66,55,65,58,53,95,77,51,30.29,30.19,9,2,0,0.00
2013-5-29,80,68,55,63,59,54,99,75,47,30.29,30.20,7,2,0,0.00
2013-5-30,79,68,54,62,58,53,98,74,48,30.32,30.23,6,2,0,0.00
2013-5-31,77,68,56,63,59,54,98,76,54,30.29,30.16,9,3,0,0.00